Time;durP1;ratioP1;P1;durP2;ratioP2;P2;SDS_P1;SDS_P2;PMS_P1;PMS_P2;Temp;Humidity;BMP_temperature;BMP_pressure;BME280_temperature;BME280_humidity;BME280_pressure;Samples;Min_cycle;Max_cycle;Signal;HPM_P1;HPM_P2
2022/05/06 00:02:08;;;;;;;86.32;42.05;;;;;;;;;;5022726;28;94205;-77
2022/05/06 00:04:35;;;;;;;85.03;40.92;;;;;;;;;;5017682;28;92937;-78
2022/05/06 00:07:02;;;;;;;93.70;43.90;;;;;;;;;;5015954;28;93478;-77
2022/05/06 00:09:28;;;;;;;82.05;42.90;;;;;;;;;;5017852;28;93196;-77
2022/05/06 00:11:54;;;;;;;84.97;42.35;;;;;;;;;;5016388;28;93213;-77
2022/05/06 00:14:21;;;;;;;83.53;41.55;;;;;;;;;;5014436;28;95676;-77
2022/05/06 00:16:49;;;;;;;87.18;42.90;;;;;;;;;;5015353;28;94147;-77
2022/05/06 00:19:15;;;;;;;104.65;44.78;;;;;;;;;;5006382;28;94820;-77
2022/05/06 00:21:42;;;;;;;94.78;43.40;;;;;;;;;;5010556;28;94471;-77
2022/05/06 00:24:08;;;;;;;90.70;43.97;;;;;;;;;;5011082;28;94473;-77
2022/05/06 00:26:35;;;;;;;90.55;43.78;;;;;;;;;;5008552;28;93497;-77
2022/05/06 00:29:01;;;;;;;88.60;42.13;;;;;;;;;;5016803;27;92831;-77
2022/05/06 00:31:27;;;;;;;93.30;42.10;;;;;;;;;;5018349;28;93430;-78
2022/05/06 00:33:54;;;;;;;86.43;41.00;;;;;;;;;;5015855;28;93871;-77
2022/05/06 00:36:21;;;;;;;90.57;40.40;;;;;;;;;;4996296;28;93699;-77
2022/05/06 00:38:47;;;;;;;88.90;42.42;;;;;;;;;;5008029;28;97568;-77
2022/05/06 00:41:13;;;;;;;100.25;44.25;;;;;;;;;;5005750;28;94557;-77
2022/05/06 00:43:40;;;;;;;109.88;42.30;;;;;;;;;;5014235;28;94919;-77
2022/05/06 00:46:15;;;;;;;127.03;44.72;;;;;;;;;;5014963;28;93231;-77
2022/05/06 00:48:44;;;;;;;133.40;46.05;;;;;;;;;;4993072;28;94509;-77
2022/05/06 00:51:11;;;;;;;95.05;39.70;;;;;;;;;;5014523;28;94711;-77
2022/05/06 00:53:39;;;;;;;224.93;42.92;;;;;;;;;;5010260;28;93048;-77
2022/05/06 00:56:10;;;;;;;382.90;47.92;;;;;;;;;;4990480;28;94734;-77
2022/05/06 00:58:37;;;;;;;283.67;47.90;;;;;;;;;;4994126;28;94950;-77
2022/05/06 01:01:03;;;;;;;240.68;43.53;;;;;;;;;;4999114;28;94166;-77
2022/05/06 01:03:30;;;;;;;270.90;45.78;;;;;;;;;;5011879;28;96676;-77
2022/05/06 01:05:57;;;;;;;323.52;46.85;;;;;;;;;;5006359;28;96519;-77
2022/05/06 01:08:23;;;;;;;228.48;43.65;;;;;;;;;;5012803;28;95938;-77
2022/05/06 01:10:52;;;;;;;360.02;44.50;;;;;;;;;;5002068;28;93028;-77
2022/05/06 01:13:18;;;;;;;143.85;36.38;;;;;;;;;;4997804;28;95473;-77
2022/05/06 01:15:48;;;;;;;340.83;32.53;;;;;;;;;;4997146;28;94017;-77
2022/05/06 01:18:19;;;;;;;433.88;34.30;;;;;;;;;;5001556;28;95363;-77
2022/05/06 01:20:48;;;;;;;334.92;33.00;;;;;;;;;;5017047;28;92387;-77
2022/05/06 01:23:15;;;;;;;206.82;32.55;;;;;;;;;;4972387;28;1094143;-77
2022/05/06 01:25:42;;;;;;;437.92;34.38;;;;;;;;;;5005201;28;93913;-77
2022/05/06 01:28:09;;;;;;;407.33;33.28;;;;;;;;;;5007762;28;96505;-77
2022/05/06 01:30:42;;;;;;;337.88;33.92;;;;;;;;;;4997214;28;92549;-77
2022/05/06 01:33:10;;;;;;;338.20;33.88;;;;;;;;;;5001839;28;93848;-77
2022/05/06 01:35:41;;;;;;;371.80;36.78;;;;;;;;;;4996105;28;94053;-77
2022/05/06 01:38:08;;;;;;;522.83;44.67;;;;;;;;;;5010132;28;93100;-77
2022/05/06 01:40:39;;;;;;;313.15;36.60;;;;;;;;;;4993708;28;95729;-77
2022/05/06 01:43:10;;;;;;;330.38;37.58;;;;;;;;;;4997635;28;92572;-77
2022/05/06 01:45:39;;;;;;;352.73;40.45;;;;;;;;;;5010015;28;95457;-77
2022/05/06 01:48:08;;;;;;;362.10;37.22;;;;;;;;;;4998243;28;95250;-77
2022/05/06 01:50:37;;;;;;;372.00;40.13;;;;;;;;;;5018189;28;93774;-77
2022/05/06 01:53:07;;;;;;;312.65;34.60;;;;;;;;;;5016028;28;97015;-77
2022/05/06 01:55:34;;;;;;;354.17;37.13;;;;;;;;;;4997180;28;92555;-77
2022/05/06 01:58:04;;;;;;;460.15;39.83;;;;;;;;;;5001019;28;94971;-77
2022/05/06 02:00:36;;;;;;;432.60;40.40;;;;;;;;;;4994504;28;95341;-77
2022/05/06 02:05:16;;;;;;;386.48;38.63;;;;;;;;;;4998774;28;93222;-76
2022/05/06 02:05:57;;;;;;;236.90;34.90;;;;;;;;;;5001662;28;95308;-76
2022/05/06 02:08:24;;;;;;;368.95;37.60;;;;;;;;;;5002854;28;96994;-76
2022/05/06 02:10:51;;;;;;;279.40;35.17;;;;;;;;;;4998519;28;92849;-76
2022/05/06 02:13:19;;;;;;;229.02;32.47;;;;;;;;;;5016372;28;94174;-76
2022/05/06 02:15:51;;;;;;;192.80;35.33;;;;;;;;;;4991655;28;94710;-77
2022/05/06 02:18:35;;;;;;;162.20;33.00;;;;;;;;;;4988292;28;95813;-76
2022/05/06 02:21:40;;;;;;;178.52;28.90;;;;;;;;;;5008113;28;96090;-76
2022/05/06 02:24:19;;;;;;;242.07;33.70;;;;;;;;;;4997035;28;94145;-76
2022/05/06 02:27:14;;;;;;;393.02;34.50;;;;;;;;;;5003498;28;92744;-76
2022/05/06 02:33:12;;;;;;;323.90;28.92;;;;;;;;;;5007870;28;95729;-76
2022/05/06 02:35:21;;;;;;;290.13;31.48;;;;;;;;;;5001686;28;96298;-76
2022/05/06 02:37:49;;;;;;;172.93;28.70;;;;;;;;;;5000057;28;95122;-77
2022/05/06 02:40:17;;;;;;;123.43;25.67;;;;;;;;;;5000246;28;93504;-76
2022/05/06 02:42:43;;;;;;;288.83;33.58;;;;;;;;;;5002250;28;94318;-76
2022/05/06 02:45:10;;;;;;;148.40;28.92;;;;;;;;;;4994354;28;95578;-76
2022/05/06 02:47:37;;;;;;;263.90;31.75;;;;;;;;;;4994522;28;96511;-76
2022/05/06 02:50:04;;;;;;;120.38;29.25;;;;;;;;;;5013987;28;95187;-76
2022/05/06 02:52:33;;;;;;;363.92;42.55;;;;;;;;;;4996425;28;93999;-77
2022/05/06 02:54:59;;;;;;;161.43;31.20;;;;;;;;;;5008906;28;94289;-76
2022/05/06 02:57:26;;;;;;;280.75;33.30;;;;;;;;;;4990616;28;94363;-77
2022/05/06 02:59:53;;;;;;;217.18;26.92;;;;;;;;;;4995975;28;93076;-77
2022/05/06 03:02:23;;;;;;;402.75;42.67;;;;;;;;;;4991115;28;94793;-77
2022/05/06 03:04:50;;;;;;;266.02;32.47;;;;;;;;;;4997305;28;92858;-76
2022/05/06 03:07:19;;;;;;;349.75;39.25;;;;;;;;;;4993885;28;95085;-76
2022/05/06 03:09:52;;;;;;;314.80;39.47;;;;;;;;;;4994640;28;96943;-76
2022/05/06 03:12:22;;;;;;;145.02;32.55;;;;;;;;;;5000773;28;93073;-76
2022/05/06 03:14:56;;;;;;;239.30;32.05;;;;;;;;;;5008933;28;95973;-76
2022/05/06 03:17:34;;;;;;;140.82;30.25;;;;;;;;;;4995931;28;95425;-76
2022/05/06 03:20:01;;;;;;;259.42;33.50;;;;;;;;;;5009590;28;94037;-76
2022/05/06 03:22:28;;;;;;;266.13;37.28;;;;;;;;;;5012690;28;93910;-77
2022/05/06 03:24:55;;;;;;;135.25;32.97;;;;;;;;;;5010501;28;94111;-77
2022/05/06 03:30:08;;;;;;;281.48;34.70;;;;;;;;;;5011061;28;93957;-77
2022/05/06 03:32:35;;;;;;;278.75;33.50;;;;;;;;;;4995324;28;92909;-77
2022/05/06 03:35:03;;;;;;;288.17;34.95;;;;;;;;;;4998972;28;96563;-77
2022/05/06 03:37:30;;;;;;;278.77;32.80;;;;;;;;;;4988643;28;95578;-77
2022/05/06 03:39:57;;;;;;;181.00;33.45;;;;;;;;;;4989481;28;94081;-77
2022/05/06 03:42:24;;;;;;;154.98;32.42;;;;;;;;;;5013539;28;93360;-77
2022/05/06 03:44:51;;;;;;;82.68;26.45;;;;;;;;;;4996119;28;93527;-77
2022/05/06 03:47:18;;;;;;;181.63;24.42;;;;;;;;;;4999290;28;96126;-77
2022/05/06 03:51:20;;;;;;;330.55;29.40;;;;;;;;;;4993251;28;95113;-77
2022/05/06 03:52:33;;;;;;;159.80;22.20;;;;;;;;;;4995582;28;93755;-78
2022/05/06 03:55:00;;;;;;;179.82;24.67;;;;;;;;;;4992853;28;94836;-77
2022/05/06 03:57:26;;;;;;;114.97;22.73;;;;;;;;;;4989549;28;96138;-77
2022/05/06 03:59:53;;;;;;;183.45;24.15;;;;;;;;;;5010311;28;95073;-77
2022/05/06 04:02:20;;;;;;;128.10;23.60;;;;;;;;;;4988365;28;97922;-77
2022/05/06 04:04:47;;;;;;;199.40;27.25;;;;;;;;;;4997134;28;94231;-77
2022/05/06 04:07:16;;;;;;;316.58;28.75;;;;;;;;;;5009237;28;94801;-77
2022/05/06 04:09:47;;;;;;;176.35;24.67;;;;;;;;;;4990049;28;95060;-77
2022/05/06 04:12:15;;;;;;;171.13;26.85;;;;;;;;;;5000911;28;94527;-77
2022/05/06 04:14:51;;;;;;;329.15;30.85;;;;;;;;;;5006662;28;94926;-77
2022/05/06 04:17:20;;;;;;;206.68;30.42;;;;;;;;;;5003052;28;91930;-77
2022/05/06 04:25:23;;;;;;;307.13;36.55;;;;;;;;;;4995757;28;98153;-77
2022/05/06 04:27:51;;;;;;;208.90;32.55;;;;;;;;;;4998072;28;94340;-77
2022/05/06 04:30:18;;;;;;;186.80;29.38;;;;;;;;;;4996069;28;95952;-77
2022/05/06 04:32:58;;;;;;;127.07;29.55;;;;;;;;;;4992877;28;92930;-77
2022/05/06 04:35:25;;;;;;;130.55;27.77;;;;;;;;;;4992780;28;93931;-76
2022/05/06 04:37:51;;;;;;;189.65;31.75;;;;;;;;;;4993561;28;95792;-76
2022/05/06 04:40:19;;;;;;;198.00;28.00;;;;;;;;;;4996609;28;92735;-76
2022/05/06 04:42:45;;;;;;;227.52;29.55;;;;;;;;;;5009857;28;93178;-76
2022/05/06 04:45:14;;;;;;;260.40;28.98;;;;;;;;;;5013630;28;94786;-76
2022/05/06 04:47:49;;;;;;;55.22;23.90;;;;;;;;;;4995519;28;92585;-76
2022/05/06 04:50:18;;;;;;;112.90;23.58;;;;;;;;;;4994719;28;95620;-76
2022/05/06 04:52:44;;;;;;;180.82;25.13;;;;;;;;;;4994441;28;92657;-76
2022/05/06 04:55:14;;;;;;;88.97;23.52;;;;;;;;;;4994565;28;94116;-77
2022/05/06 04:57:41;;;;;;;152.60;25.30;;;;;;;;;;4995178;28;94168;-77
2022/05/06 05:00:09;;;;;;;196.82;27.08;;;;;;;;;;5008909;28;94328;-77
2022/05/06 05:02:40;;;;;;;82.70;24.23;;;;;;;;;;5000049;28;93616;-77
2022/05/06 05:05:07;;;;;;;165.55;25.27;;;;;;;;;;5009988;28;92960;-77
2022/05/06 05:07:35;;;;;;;121.90;26.23;;;;;;;;;;4993894;28;93675;-77
2022/05/06 05:10:02;;;;;;;57.38;24.15;;;;;;;;;;5014342;28;93275;-77
2022/05/06 05:12:28;;;;;;;144.02;25.58;;;;;;;;;;5013181;28;94436;-75
2022/05/06 05:14:54;;;;;;;85.80;23.98;;;;;;;;;;5000802;28;94906;-76
2022/05/06 05:17:25;;;;;;;53.63;24.08;;;;;;;;;;5009297;28;95090;-76
2022/05/06 05:19:53;;;;;;;46.45;23.98;;;;;;;;;;5009646;28;93424;-75
2022/05/06 05:22:21;;;;;;;35.45;20.35;;;;;;;;;;5001682;28;94163;-76
2022/05/06 05:24:50;;;;;;;69.15;23.85;;;;;;;;;;5004402;28;95476;-79
2022/05/06 05:27:16;;;;;;;78.68;23.00;;;;;;;;;;4998315;28;92740;-77
2022/05/06 05:29:43;;;;;;;95.60;23.60;;;;;;;;;;5001976;28;94461;-77
2022/05/06 05:32:10;;;;;;;149.00;24.90;;;;;;;;;;4990479;28;96402;-77
2022/05/06 05:34:42;;;;;;;80.07;26.35;;;;;;;;;;5014466;28;94511;-77
2022/05/06 05:37:11;;;;;;;78.22;23.83;;;;;;;;;;4993917;28;95843;-77
2022/05/06 05:39:39;;;;;;;42.78;21.88;;;;;;;;;;5004506;28;96614;-76
2022/05/06 05:42:08;;;;;;;68.03;21.45;;;;;;;;;;5000146;28;96388;-75
2022/05/06 05:50:09;;;;;;;216.40;25.88;;;;;;;;;;4995520;28;95366;-76
2022/05/06 05:52:37;;;;;;;170.13;24.08;;;;;;;;;;4994126;28;94475;-76
2022/05/06 05:55:03;;;;;;;43.40;22.08;;;;;;;;;;4998012;28;93269;-75
2022/05/06 05:57:30;;;;;;;51.85;21.20;;;;;;;;;;4999924;28;95559;-75
2022/05/06 05:59:56;;;;;;;98.50;20.42;;;;;;;;;;5021192;28;94270;-75
2022/05/06 06:02:25;;;;;;;69.32;22.73;;;;;;;;;;5030015;27;93281;-75
2022/05/06 06:04:55;;;;;;;79.13;21.13;;;;;;;;;;5011054;27;98054;-75
2022/05/06 06:07:23;;;;;;;58.10;21.35;;;;;;;;;;4995638;28;93036;-75
2022/05/06 06:09:54;;;;;;;22.90;16.65;;;;;;;;;;5012786;28;94341;-76
2022/05/06 06:12:21;;;;;;;24.70;13.70;;;;;;;;;;5003273;28;95846;-75
2022/05/06 06:14:49;;;;;;;39.50;15.55;;;;;;;;;;5023186;27;92590;-75
2022/05/06 06:17:16;;;;;;;25.15;16.23;;;;;;;;;;5020286;28;92998;-75
2022/05/06 06:19:43;;;;;;;75.50;18.45;;;;;;;;;;5006397;28;92585;-75
2022/05/06 06:22:10;;;;;;;44.92;17.60;;;;;;;;;;5013927;28;94834;-76
2022/05/06 06:24:51;;;;;;;24.73;15.32;;;;;;;;;;5014631;28;95913;-76
2022/05/06 06:27:18;;;;;;;16.55;13.82;;;;;;;;;;5014582;28;92639;-76
2022/05/06 06:29:47;;;;;;;26.60;13.90;;;;;;;;;;5019122;27;95326;-76
2022/05/06 06:32:14;;;;;;;54.05;14.60;;;;;;;;;;5014878;28;94281;-75
2022/05/06 06:34:40;;;;;;;14.63;12.70;;;;;;;;;;5001989;27;93013;-75
2022/05/06 06:37:08;;;;;;;13.77;10.77;;;;;;;;;;4995588;28;94966;-75
2022/05/06 06:39:40;;;;;;;13.60;9.40;;;;;;;;;;5002681;28;94329;-75
2022/05/06 06:42:07;;;;;;;10.32;9.52;;;;;;;;;;5000087;28;94484;-78
2022/05/06 06:44:52;;;;;;;10.45;8.38;;;;;;;;;;4993645;28;95510;-72
2022/05/06 06:47:37;;;;;;;8.77;8.18;;;;;;;;;;5029530;28;91803;-75
2022/05/06 06:50:14;;;;;;;9.35;8.65;;;;;;;;;;5014491;28;92555;-75
2022/05/06 06:52:51;;;;;;;9.77;8.98;;;;;;;;;;5015216;28;93188;-75
2022/05/06 06:55:18;;;;;;;10.18;9.38;;;;;;;;;;5031433;28;95757;-75
2022/05/06 06:57:44;;;;;;;11.13;9.95;;;;;;;;;;5048257;27;96431;-75
2022/05/06 07:00:12;;;;;;;11.85;10.68;;;;;;;;;;5047351;27;94198;-75
2022/05/06 07:02:42;;;;;;;11.82;10.70;;;;;;;;;;5032051;28;93175;-75
2022/05/06 07:05:09;;;;;;;11.88;10.88;;;;;;;;;;5010968;28;94109;-75
2022/05/06 07:13:30;;;;;;;10.38;9.20;;;;;;;;;;5012157;28;92452;-75
2022/05/06 07:15:57;;;;;;;9.82;9.13;;;;;;;;;;5012144;28;92449;-75
2022/05/06 07:18:23;;;;;;;10.82;9.93;;;;;;;;;;5011687;28;94224;-75
2022/05/06 07:20:50;;;;;;;10.50;9.60;;;;;;;;;;5009201;27;96802;-75
2022/05/06 07:23:16;;;;;;;10.63;9.63;;;;;;;;;;5027254;28;95223;-75
2022/05/06 07:25:42;;;;;;;10.02;9.15;;;;;;;;;;5031937;28;93010;-75
2022/05/06 07:28:09;;;;;;;9.00;8.27;;;;;;;;;;5012641;28;92467;-77
2022/05/06 07:30:35;;;;;;;9.65;8.77;;;;;;;;;;5012031;28;94270;-76
2022/05/06 07:33:01;;;;;;;9.98;9.18;;;;;;;;;;5010528;28;93205;-77
2022/05/06 07:35:29;;;;;;;10.40;9.50;;;;;;;;;;5015567;28;92594;-79
2022/05/06 07:37:55;;;;;;;9.02;8.43;;;;;;;;;;5032881;28;94070;-75
2022/05/06 07:40:21;;;;;;;9.98;9.05;;;;;;;;;;5031345;28;94164;-76
2022/05/06 07:42:50;;;;;;;10.23;9.52;;;;;;;;;;5032064;28;92585;-76
2022/05/06 07:45:17;;;;;;;9.20;8.60;;;;;;;;;;5030496;28;94889;-76
2022/05/06 07:47:43;;;;;;;10.63;9.63;;;;;;;;;;5034931;27;94547;-76
2022/05/06 07:50:22;;;;;;;9.40;8.55;;;;;;;;;;5035502;28;93976;-76
2022/05/06 07:52:50;;;;;;;9.77;8.98;;;;;;;;;;5034783;28;94179;-77
2022/05/06 07:55:19;;;;;;;10.00;9.27;;;;;;;;;;5035765;28;92511;-77
2022/05/06 07:57:46;;;;;;;9.98;9.32;;;;;;;;;;5051797;27;93946;-77
2022/05/06 08:00:12;;;;;;;10.30;9.40;;;;;;;;;;5054720;27;93506;-77
2022/05/06 08:05:27;;;;;;;11.02;9.93;;;;;;;;;;5034741;28;92839;-77
2022/05/06 08:07:54;;;;;;;10.65;9.80;;;;;;;;;;5034697;28;95367;-77
2022/05/06 08:10:21;;;;;;;9.38;8.57;;;;;;;;;;5036852;28;95654;-78
2022/05/06 08:12:47;;;;;;;10.00;9.05;;;;;;;;;;5035282;28;94521;-78
2022/05/06 08:15:13;;;;;;;11.02;9.95;;;;;;;;;;5034261;28;92512;-78
2022/05/06 08:17:40;;;;;;;10.13;9.15;;;;;;;;;;5035198;27;93211;-79
2022/05/06 08:20:08;;;;;;;9.35;8.00;;;;;;;;;;5015269;28;93073;-78
2022/05/06 08:22:36;;;;;;;9.07;8.48;;;;;;;;;;5013645;28;92977;-78
2022/05/06 08:25:04;;;;;;;8.40;7.85;;;;;;;;;;5015116;28;93991;-78
2022/05/06 08:27:51;;;;;;;7.88;7.38;;;;;;;;;;5014816;28;93508;-78
2022/05/06 08:30:18;;;;;;;7.93;7.40;;;;;;;;;;5018368;28;92600;-76
2022/05/06 08:32:44;;;;;;;6.90;6.47;;;;;;;;;;5014549;28;94971;-76
2022/05/06 08:35:11;;;;;;;6.18;5.78;;;;;;;;;;5012835;28;95636;-76
2022/05/06 08:37:44;;;;;;;6.22;5.80;;;;;;;;;;5014172;28;95512;-76
2022/05/06 08:40:17;;;;;;;5.18;4.88;;;;;;;;;;5014780;28;94210;-76
2022/05/06 08:42:44;;;;;;;5.43;5.05;;;;;;;;;;5013841;28;92427;-76
2022/05/06 08:50:51;;;;;;;5.38;5.07;;;;;;;;;;5031574;28;92893;-76
2022/05/06 08:53:17;;;;;;;7.00;4.47;;;;;;;;;;5038420;28;93957;-76
2022/05/06 08:55:44;;;;;;;6.50;4.65;;;;;;;;;;5033890;28;92917;-76
2022/05/06 08:58:10;;;;;;;5.45;5.15;;;;;;;;;;5034634;28;93959;-76
2022/05/06 09:00:36;;;;;;;8.05;5.30;;;;;;;;;;5032426;28;96557;-76
2022/05/06 09:03:03;;;;;;;11.02;5.05;;;;;;;;;;5033614;28;92467;-76
2022/05/06 09:05:29;;;;;;;4.68;4.47;;;;;;;;;;5034579;28;94010;-76
2022/05/06 09:08:02;;;;;;;6.43;4.65;;;;;;;;;;5017709;28;93362;-76
2022/05/06 09:10:29;;;;;;;5.32;3.50;;;;;;;;;;5014133;28;92905;-76
2022/05/06 09:12:56;;;;;;;4.10;3.90;;;;;;;;;;5014463;28;92481;-76
2022/05/06 09:18:08;;;;;;;5.63;4.40;;;;;;;;;;5014995;28;92796;-77
2022/05/06 09:20:40;;;;;;;;;;;;;;;;;;5014520;28;94508;-77
2022/05/06 09:23:18;;;;;;;4.53;4.22;;;;;;;;;;5014308;28;118345;-77
2022/05/06 09:25:51;;;;;;;4.10;3.80;;;;;;;;;;5011372;28;95208;-77
2022/05/06 09:28:27;;;;;;;5.90;3.30;;;;;;;;;;5013634;28;93664;-77
2022/05/06 09:31:11;;;;;;;5.43;3.35;;;;;;;;;;5013498;28;92866;-76
2022/05/06 09:33:41;;;;;;;6.82;4.40;;;;;;;;;;5013668;28;94213;-76
2022/05/06 09:36:43;;;;;;;6.40;3.97;;;;;;;;;;5013163;28;94148;-76
2022/05/06 09:39:10;;;;;;;4.30;4.00;;;;;;;;;;4934961;28;92517;-76
2022/05/06 09:41:38;;;;;;;4.18;3.88;;;;;;;;;;4997575;28;93243;-76
2022/05/06 09:44:05;;;;;;;5.05;4.50;;;;;;;;;;5014265;28;91685;-76
2022/05/06 09:46:32;;;;;;;5.22;4.90;;;;;;;;;;5013095;28;93536;-76
2022/05/06 09:49:00;;;;;;;5.50;5.10;;;;;;;;;;5013256;28;93422;-76
2022/05/06 09:51:27;;;;;;;6.68;5.15;;;;;;;;;;5011601;28;94865;-76
2022/05/06 09:53:54;;;;;;;5.88;5.40;;;;;;;;;;5013206;28;96225;-76
2022/05/06 09:56:21;;;;;;;5.78;5.28;;;;;;;;;;5013612;28;94755;-77
2022/05/06 09:58:48;;;;;;;5.90;5.40;;;;;;;;;;5013350;28;92533;-77
2022/05/06 10:01:15;;;;;;;8.43;5.90;;;;;;;;;;5015730;28;92802;-76
2022/05/06 10:03:41;;;;;;;7.03;5.00;;;;;;;;;;5012599;28;92479;-76
2022/05/06 10:06:10;;;;;;;5.68;5.22;;;;;;;;;;5012545;28;93565;-76
2022/05/06 10:08:38;;;;;;;6.25;5.40;;;;;;;;;;5013208;28;92732;-77
2022/05/06 10:11:12;;;;;;;5.97;5.55;;;;;;;;;;5012827;28;92461;-76
2022/05/06 10:13:43;;;;;;;5.82;5.28;;;;;;;;;;5012587;28;92945;-76
2022/05/06 10:16:10;;;;;;;5.78;5.28;;;;;;;;;;5011804;28;96646;-76
2022/05/06 10:18:37;;;;;;;5.93;5.43;;;;;;;;;;5013027;28;92556;-76
2022/05/06 10:21:08;;;;;;;6.07;5.47;;;;;;;;;;4994382;28;95519;-77
2022/05/06 10:23:45;;;;;;;5.18;4.85;;;;;;;;;;5014997;28;93457;-76
2022/05/06 10:26:32;;;;;;;6.18;5.78;;;;;;;;;;5013193;28;93373;-76
2022/05/06 10:34:30;;;;;;;6.80;6.13;;;;;;;;;;5030939;28;93079;-75
2022/05/06 10:36:58;;;;;;;6.93;6.43;;;;;;;;;;5022629;28;94335;-77
2022/05/06 10:39:37;;;;;;;6.43;5.90;;;;;;;;;;5017888;28;94587;-76
2022/05/06 10:42:10;;;;;;;6.80;5.22;;;;;;;;;;5009955;28;96370;-75
2022/05/06 10:44:39;;;;;;;6.25;5.10;;;;;;;;;;5024018;28;93186;-75
2022/05/06 10:47:12;;;;;;;4.97;4.55;;;;;;;;;;5019188;28;94254;-77
2022/05/06 10:49:38;;;;;;;4.80;4.50;;;;;;;;;;5013448;28;94550;-79
2022/05/06 10:52:24;;;;;;;5.47;4.97;;;;;;;;;;5016998;28;92568;-79
2022/05/06 10:54:53;;;;;;;8.50;5.82;;;;;;;;;;5017737;28;94193;-78
2022/05/06 10:57:21;;;;;;;4.63;4.22;;;;;;;;;;5015669;28;93306;-79
2022/05/06 10:59:50;;;;;;;3.42;3.10;;;;;;;;;;5017127;28;93449;-78
2022/05/06 11:02:16;;;;;;;6.38;3.38;;;;;;;;;;5016519;28;92917;-73
2022/05/06 11:04:49;;;;;;;4.95;4.55;;;;;;;;;;5013666;28;93997;-76
2022/05/06 11:07:17;;;;;;;5.15;4.65;;;;;;;;;;5021581;28;96903;-76
2022/05/06 11:09:43;;;;;;;5.68;4.93;;;;;;;;;;5020826;28;95290;-76
2022/05/06 11:12:10;;;;;;;6.10;4.80;;;;;;;;;;5013080;28;92482;-75
2022/05/06 11:14:36;;;;;;;5.03;4.70;;;;;;;;;;5016916;28;93971;-75
2022/05/06 11:17:14;;;;;;;7.22;5.20;;;;;;;;;;5013547;28;94075;-75
2022/05/06 11:19:40;;;;;;;5.47;4.00;;;;;;;;;;5014936;28;94103;-75
2022/05/06 11:22:07;;;;;;;5.72;3.55;;;;;;;;;;5022339;28;94125;-75
2022/05/06 11:24:34;;;;;;;6.35;4.88;;;;;;;;;;5018432;28;93894;-75
2022/05/06 11:27:13;;;;;;;7.32;5.40;;;;;;;;;;5016821;28;93321;-74
2022/05/06 11:29:49;;;;;;;6.80;4.70;;;;;;;;;;5023886;28;93806;-74
2022/05/06 11:32:17;;;;;;;5.25;4.43;;;;;;;;;;5020151;27;94915;-75
2022/05/06 11:35:04;;;;;;;5.40;4.88;;;;;;;;;;5029301;28;96373;-75
2022/05/06 11:37:33;;;;;;;5.68;5.13;;;;;;;;;;5016184;28;95875;-75
2022/05/06 11:40:18;;;;;;;10.10;5.03;;;;;;;;;;5019371;28;92465;-77
2022/05/06 11:42:45;;;;;;;5.68;4.55;;;;;;;;;;5014736;28;92643;-76
2022/05/06 11:48:07;;;;;;;5.20;3.70;;;;;;;;;;5017104;28;92832;-77
2022/05/06 11:50:33;;;;;;;4.25;3.85;;;;;;;;;;5035994;28;94475;-75
2022/05/06 11:53:01;;;;;;;5.47;3.30;;;;;;;;;;5038146;28;94382;-76
2022/05/06 11:55:28;;;;;;;6.07;3.92;;;;;;;;;;5024149;28;93934;-76
2022/05/06 11:57:56;;;;;;;7.72;3.63;;;;;;;;;;5023426;28;96605;-76
2022/05/06 12:00:23;;;;;;;13.70;4.43;;;;;;;;;;5034850;28;92453;-76
2022/05/06 12:02:55;;;;;;;10.85;4.30;;;;;;;;;;5035331;28;92706;-76
2022/05/06 12:05:22;;;;;;;10.40;4.57;;;;;;;;;;5035353;28;94021;-76
2022/05/06 12:07:48;;;;;;;5.25;4.45;;;;;;;;;;5034874;28;93024;-76
2022/05/06 12:10:28;;;;;;;8.95;5.18;;;;;;;;;;5034899;28;93264;-77
2022/05/06 12:12:56;;;;;;;6.70;5.32;;;;;;;;;;5034654;27;94243;-77
2022/05/06 12:15:32;;;;;;;7.00;6.32;;;;;;;;;;5038681;28;91776;-76
2022/05/06 12:18:02;;;;;;;7.13;6.53;;;;;;;;;;5034845;28;94351;-76
2022/05/06 12:20:29;;;;;;;8.05;6.95;;;;;;;;;;5034483;28;92455;-77
2022/05/06 12:22:58;;;;;;;11.38;6.25;;;;;;;;;;5033718;28;95340;-76
2022/05/06 12:25:25;;;;;;;13.57;6.70;;;;;;;;;;5034738;28;94087;-76
2022/05/06 12:28:10;;;;;;;8.93;6.38;;;;;;;;;;5032718;28;92514;-77
2022/05/06 12:30:37;;;;;;;8.00;7.18;;;;;;;;;;5018416;28;93704;-77
2022/05/06 12:33:13;;;;;;;9.48;8.15;;;;;;;;;;5014707;28;94192;-76
2022/05/06 12:35:56;;;;;;;10.23;9.43;;;;;;;;;;5013927;28;92492;-77
2022/05/06 12:38:26;;;;;;;9.10;8.20;;;;;;;;;;5017619;28;93988;-77
2022/05/06 12:40:53;;;;;;;9.82;8.55;;;;;;;;;;5014812;28;91690;-77
2022/05/06 12:43:26;;;;;;;8.77;8.02;;;;;;;;;;5014891;28;93470;-77
2022/05/06 12:45:54;;;;;;;9.30;8.50;;;;;;;;;;5014674;28;94139;-76
2022/05/06 12:51:06;;;;;;;7.95;7.20;;;;;;;;;;5014692;28;95237;-72
2022/05/06 12:53:36;;;;;;;9.23;8.27;;;;;;;;;;5013651;28;93808;-74
2022/05/06 12:56:02;;;;;;;9.68;8.55;;;;;;;;;;5014047;28;92981;-77
2022/05/06 12:58:29;;;;;;;9.40;8.45;;;;;;;;;;5026974;28;94211;-76
2022/05/06 13:00:56;;;;;;;10.40;9.30;;;;;;;;;;5035103;28;93105;-79
2022/05/06 13:03:23;;;;;;;10.32;9.30;;;;;;;;;;5033724;28;93821;-76
2022/05/06 13:05:50;;;;;;;12.32;9.27;;;;;;;;;;5035276;28;93265;-81
2022/05/06 13:08:16;;;;;;;16.65;10.55;;;;;;;;;;5036130;28;92480;-80
2022/05/06 13:10:42;;;;;;;11.70;9.30;;;;;;;;;;5023347;28;93912;-80
2022/05/06 13:13:15;;;;;;;10.82;9.68;;;;;;;;;;5016854;28;96490;-80
2022/05/06 13:15:42;;;;;;;14.60;10.27;;;;;;;;;;5027706;28;92412;-80
2022/05/06 13:18:09;;;;;;;13.90;10.52;;;;;;;;;;5038935;28;92929;-79
2022/05/06 13:20:35;;;;;;;12.13;10.80;;;;;;;;;;5042009;28;94361;-80
2022/05/06 13:23:02;;;;;;;14.32;10.52;;;;;;;;;;5022978;28;93955;-78
2022/05/06 13:25:28;;;;;;;14.77;11.85;;;;;;;;;;5012874;28;93664;-76
2022/05/06 13:27:55;;;;;;;11.10;9.95;;;;;;;;;;5015953;28;92969;-74
2022/05/06 13:30:21;;;;;;;16.08;11.05;;;;;;;;;;5019055;28;92932;-74
2022/05/06 13:32:47;;;;;;;12.95;10.35;;;;;;;;;;5012129;27;93966;-75
2022/05/06 13:35:14;;;;;;;16.33;11.18;;;;;;;;;;5008242;28;92648;-75
2022/05/06 13:37:40;;;;;;;15.70;12.52;;;;;;;;;;5009166;28;95047;-75
2022/05/06 13:40:07;;;;;;;11.88;10.25;;;;;;;;;;5023679;27;93267;-75
2022/05/06 13:42:34;;;;;;;12.82;11.52;;;;;;;;;;5033947;27;93189;-75
2022/05/06 13:45:00;;;;;;;15.23;11.93;;;;;;;;;;5016100;28;94342;-75
2022/05/06 13:47:27;;;;;;;17.75;11.57;;;;;;;;;;5016034;27;93819;-75
2022/05/06 13:49:54;;;;;;;12.82;11.50;;;;;;;;;;5016645;28;94055;-75
2022/05/06 13:52:28;;;;;;;13.32;12.02;;;;;;;;;;5014749;28;94189;-75
2022/05/06 13:54:56;;;;;;;12.60;11.30;;;;;;;;;;5024483;28;92375;-74
2022/05/06 14:00:25;;;;;;;14.52;10.85;;;;;;;;;;5023930;27;94208;-75
2022/05/06 14:02:54;;;;;;;14.50;10.63;;;;;;;;;;5015732;28;95173;-75
2022/05/06 14:05:23;;;;;;;;;;;;;;;;;;5036416;28;96407;-75
2022/05/06 14:07:50;;;;;;;11.35;10.15;;;;;;;;;;5023791;28;120710;-75
2022/05/06 14:10:16;;;;;;;14.52;11.15;;;;;;;;;;5016898;28;93999;-76
2022/05/06 14:12:43;;;;;;;14.68;9.93;;;;;;;;;;5013607;28;93280;-77
2022/05/06 14:15:10;;;;;;;11.38;10.18;;;;;;;;;;5016748;28;92785;-76
2022/05/06 14:17:36;;;;;;;11.07;9.98;;;;;;;;;;5015875;28;94092;-76
2022/05/06 14:20:03;;;;;;;11.45;10.30;;;;;;;;;;5012070;27;92552;-76
2022/05/06 14:22:29;;;;;;;14.65;10.30;;;;;;;;;;5013467;28;93453;-76
2022/05/06 14:24:56;;;;;;;10.23;9.23;;;;;;;;;;5014161;28;94165;-76
2022/05/06 14:27:23;;;;;;;12.75;8.45;;;;;;;;;;5012800;28;96710;-76
2022/05/06 14:29:49;;;;;;;8.50;7.63;;;;;;;;;;5008606;28;96374;-75
2022/05/06 14:32:15;;;;;;;10.13;8.88;;;;;;;;;;5017006;27;94766;-76
2022/05/06 14:34:42;;;;;;;14.43;10.15;;;;;;;;;;5014833;28;94534;-75
2022/05/06 14:37:08;;;;;;;10.80;8.75;;;;;;;;;;5011169;28;97412;-76
2022/05/06 14:39:35;;;;;;;10.27;9.27;;;;;;;;;;5009589;28;94648;-76
2022/05/06 14:42:03;;;;;;;17.02;9.23;;;;;;;;;;5023228;27;92901;-75
2022/05/06 14:44:31;;;;;;;9.38;8.32;;;;;;;;;;5015195;28;93073;-76
2022/05/06 14:46:59;;;;;;;11.93;9.20;;;;;;;;;;5028803;28;93236;-76
2022/05/06 14:49:26;;;;;;;8.20;7.35;;;;;;;;;;5025799;27;93028;-76
2022/05/06 14:51:52;;;;;;;8.13;7.32;;;;;;;;;;5015646;28;96480;-76
2022/05/06 14:54:18;;;;;;;8.75;7.32;;;;;;;;;;5026400;28;92465;-71
2022/05/06 14:56:45;;;;;;;13.57;9.00;;;;;;;;;;5011611;28;94342;-75
2022/05/06 14:59:11;;;;;;;10.68;8.40;;;;;;;;;;5045571;27;94396;-76
2022/05/06 15:01:37;;;;;;;9.23;7.25;;;;;;;;;;5051942;27;92626;-75
2022/05/06 15:04:04;;;;;;;10.85;7.47;;;;;;;;;;5053087;27;94207;-75
2022/05/06 15:06:30;;;;;;;7.72;7.03;;;;;;;;;;5052451;27;94236;-78
2022/05/06 15:08:58;;;;;;;10.23;6.90;;;;;;;;;;5055596;27;92045;-75
2022/05/06 15:11:26;;;;;;;8.43;6.97;;;;;;;;;;5030482;27;94138;-76
2022/05/06 15:13:52;;;;;;;9.73;7.07;;;;;;;;;;5012444;28;92599;-75
2022/05/06 15:16:19;;;;;;;6.43;5.90;;;;;;;;;;5010508;28;94896;-75
2022/05/06 15:21:31;;;;;;;6.93;6.25;;;;;;;;;;5011731;28;92459;-74
2022/05/06 15:23:57;;;;;;;6.40;5.70;;;;;;;;;;5011154;28;93845;-74
2022/05/06 15:26:23;;;;;;;6.28;5.68;;;;;;;;;;5011929;28;94774;-75